Flight Track Log - Related Links

Times and Time Zones

All times are in EST time to prevent confusion due to time zone crossing. See the N319EE flight status page for this flight to view local times or setup timezone preferences in your user account.


Time Position Orientation Groundspeed Altitude Reporting Facility
EST Latitude Longitude Course Direction KTS MPH feet Rate Location/Type
Thu 02:23:10 PM 44.3564 -69.8650 246° West 152 175 3,400  Level Boston Center
Thu 02:24:11 PM 44.3417 -69.9119 246° West 134 154 5,500 2,182 Climbing Boston Center
Thu 02:25:11 PM 44.3228 -69.9583 240° Southwest 130 150 7,800 2,132 Climbing Boston Center
Thu 02:26:12 PM 44.3061 -70.0025 242° Southwest 128 147 9,800 1,854 Climbing Boston Center
Thu 02:27:14 PM 44.2892 -70.0481 243° Southwest 135 155 11,600 1,770 Climbing Boston Center
Thu 02:28:14 PM 44.2717 -70.0975 244° Southwest 144 166 13,400 1,800 Climbing Boston Center
Thu 02:29:14 PM 44.2553 -70.1461 245° Southwest 139 160 15,200 1,820 Climbing Boston Center
Thu 02:30:16 PM 44.2336 -70.1958 239° Southwest 139 160 17,100 1,548 Climbing Boston Center
Thu 02:31:18 PM 44.2194 -70.2483 249° West 145 167 18,400 1,230 Climbing Boston Center
Thu 02:32:18 PM 44.2011 -70.3000 244° Southwest 149 171 19,600 793 Climbing Boston Center
Thu 02:33:19 PM 44.1800 -70.3631 245° Southwest 174 200 20,000 195 Climbing Boston Center
Thu 02:34:21 PM 44.1511 -70.4367 241° Southwest 208 239 20,000  Level Boston Center
Thu 02:35:22 PM 44.1239 -70.5167 245° Southwest 224 258 20,000  Level Boston Center
Thu 02:36:23 PM 44.0961 -70.5950 244° Southwest 225 259 20,000  Level Boston Center
Thu 02:37:25 PM 44.0681 -70.6717 243° Southwest 224 258 20,000  Level Boston Center
Thu 02:38:25 PM 44.0403 -70.7478 243° Southwest 220 253 20,000  Level Boston Center
Thu 02:39:26 PM 44.0131 -70.8231 243° Southwest 220 253 20,000  Level Boston Center
Thu 02:40:28 PM 43.9892 -70.8994 247° West 218 251 20,000  Level Boston Center
Thu 02:41:29 PM 43.9683 -70.9769 250° West 217 250 20,000  Level Boston Center
Thu 02:42:27 PM 43.9450 -71.0650 250° West 215 247 20,000  Level Boston Center
Thu 02:43:28 PM 43.9219 -71.1467 249° West 222 255 20,000  Level Boston Center
Thu 02:44:32 PM 43.8969 -71.2336 248° West 235 270 20,000  Level Boston Center
Thu 02:45:31 PM 43.8733 -71.3217 250° West 241 277 20,000  Level Boston Center
Thu 02:46:32 PM 43.8489 -71.4086 249° West 241 277 20,000  Level Boston Center
Thu 02:47:33 PM 43.8242 -71.4964 249° West 244 281 20,000  Level Boston Center
Thu 02:48:35 PM 43.8008 -71.5836 250° West 248 285 20,000  Level Boston Center
Thu 02:49:35 PM 43.7767 -71.6708 249° West 244 281 20,000  Level Boston Center
Thu 02:50:38 PM 43.7525 -71.7586 249° West 245 282 20,000  Level Boston Center
Thu 02:51:37 PM 43.7278 -71.8464 249° West 246 283 20,000  Level Boston Center
Thu 02:52:40 PM 43.7028 -71.9344 249° West 246 283 20,000  Level Boston Center
Thu 02:53:41 PM 43.6725 -72.0389 248° West 246 283 20,000  Level Boston Center
Thu 02:54:40 PM 43.6472 -72.1294 249° West 253 291 20,000  Level Boston Center
Thu 02:55:44 PM 43.6231 -72.2169 249° West 248 285 20,000  Level Boston Center
Thu 02:56:45 PM 43.5978 -72.3044 248° West 247 284 20,000  Level Boston Center
Thu 02:57:45 PM 43.5722 -72.3942 249° West 250 288 20,000  Level Boston Center
Thu 02:58:46 PM 43.5464 -72.4817 248° West 249 287 20,000  Level Boston Center
Thu 02:59:46 PM 43.5211 -72.5708 249° West 249 287 20,000  Level Boston Center
Thu 03:00:50 PM 43.4944 -72.6589 247° West 249 287 20,000  Level Boston Center
Thu 03:01:50 PM 43.4692 -72.7486 249° West 252 290 20,000  Level Boston Center
Thu 03:02:51 PM 43.4436 -72.8381 249° West 252 290 20,000  Level Boston Center
Thu 03:03:52 PM 43.4111 -72.9436 247° West 252 290 20,000  Level Boston Center
Thu 03:04:52 PM 43.3853 -73.0344 249° West 254 292 20,000  Level Boston Center
Thu 03:05:55 PM 43.3586 -73.1244 248° West 255 293 20,000  Level Boston Center
Thu 03:06:56 PM 43.3317 -73.2150 248° West 258 297 20,000  Level Boston Center
Thu 03:07:56 PM 43.3058 -73.3047 248° West 255 293 20,000  Level Boston Center
Thu 03:10:00 PM 43.2472 -73.4986 248° West 259 298 20,000  Level Boston Center
Thu 03:11:00 PM 43.2203 -73.5886 248° West 256 295 20,000  Level Boston Center
Thu 03:12:01 PM 43.1919 -73.6817 247° West 263 303 20,000  Level Boston Center
Thu 03:13:03 PM 43.1683 -73.7614 248° West 260 299 20,000  Level Boston Center
Thu 03:14:04 PM 43.1339 -73.8725 247° West 264 304 20,000  Level Boston Center
Thu 03:15:05 PM 43.1067 -73.9644 248° West 262 302 20,000  Level Boston Center
Thu 03:16:05 PM 43.0781 -74.0553 247° West 260 299 20,000  Level Boston Center
Thu 03:17:06 PM 43.0508 -74.1450 247° West 257 296 20,000  Level Boston Center
Thu 03:18:07 PM 43.0239 -74.2328 247° West 251 289 20,000  Level Boston Center
Thu 03:19:10 PM 42.9975 -74.3197 247° West 249 287 20,000  Level Boston Center
Thu 03:20:10 PM 42.9694 -74.4061 246° West 250 288 20,000  Level Boston Center
Thu 03:21:11 PM 42.9425 -74.4933 247° West 249 287 20,000  Level Boston Center
Thu 03:22:11 PM 42.9153 -74.5808 247° West 249 287 20,000  Level Boston Center
Thu 03:23:11 PM 42.8894 -74.6642 247° West 243 280 20,000  Level Boston Center
Thu 03:24:13 PM 42.8633 -74.7475 247° West 241 277 20,000  Level Boston Center
Thu 03:25:15 PM 42.8375 -74.8308 247° West 238 274 20,000  Level Boston Center
Thu 03:26:17 PM 42.8111 -74.9125 246° West 235 270 20,000 -195 Level Boston Center
Thu 03:27:18 PM 42.7850 -74.9942 246° West 236 272 19,600 -787 Descending Boston Center
Thu 03:28:19 PM 42.7514 -75.0997 247° West 252 290 18,400 -984 Descending Boston Center
Thu 03:29:20 PM 42.7231 -75.1922 247° West 262 302 17,600 -893 Descending Boston Center
Thu 03:30:20 PM 42.6942 -75.2833 247° West 262 302 16,600 -984 Descending Boston Center
Thu 03:31:22 PM 42.6672 -75.3736 248° West 260 299 15,600 -968 Descending Boston Center
Thu 03:32:24 PM 42.6386 -75.4622 246° West 257 296 14,600 -976 Descending Boston Center
Thu 03:33:25 PM 42.6103 -75.5531 247° West 259 298 13,600 -984 Descending Boston Center
Thu 03:34:26 PM 42.5800 -75.6489 247° West 270 311 12,600 -800 Descending Boston Center
Thu 03:35:25 PM 42.5497 -75.7431 246° West 273 314 12,000 -300 Descending Boston Center
Thu 03:36:26 PM 42.5214 -75.8325 247° West 263 303 12,000  Level Boston Center
Thu 03:37:27 PM 42.4939 -75.9178 246° West 251 289 12,000  Level Boston Center
Thu 03:38:29 PM 42.4664 -76.0019 246° West 246 283 12,000  Level Boston Center
Thu 03:39:30 PM 42.4394 -76.0878 247° West 249 287 12,000 -198 Level Boston Center
Thu 03:40:30 PM 42.4111 -76.1739 246° West 250 288 11,600 -650 Descending Boston Center
Thu 03:41:30 PM 42.3775 -76.2758 246° West 250 288 10,700 -848 Descending Boston Center
Thu 03:42:09 PM 42.3617 -76.3297 248° West 248 285 10,200 -545 Descending New York Center
Thu 03:43:09 PM 42.3411 -76.4122 251° West 248 285 9,800 -700 Descending New York Center
Thu 03:44:09 PM 42.3122 -76.4911 244° Southwest 248 285 8,800 -1,200 Descending New York Center
Thu 03:45:09 PM 42.2861 -76.5589 243° Southwest 243 280 7,400 -1,900 Descending New York Center
Thu 03:46:09 PM 42.2619 -76.6294 245° Southwest 231 266 5,000 -1,700 Descending New York Center
Thu 03:47:09 PM 42.2400 -76.6919 245° Southwest 209 241 4,000 -850 Descending New York Center
Thu 03:48:09 PM 42.2206 -76.7492 245° Southwest 191 220 3,300 -750 Descending New York Center
Thu 03:49:09 PM 42.2036 -76.7981 245° Southwest 173 199 2,500 -600 Descending New York Center
Thu 03:50:09 PM 42.1794 -76.8628 243° Southwest 173 199 2,100 3,250 Descending New York Center
Thu 03:51:09 PM 42.1600 -76.9169 244° Southwest 173 199 9,000 3,450 Climbing New York Center
Thu 03:52:09 PM 42.1425 -76.9714 247° West 173 199 9,000  Level New York Center
Thu 03:53:09 PM 42.1231 -77.0256 244° Southwest 173 199 9,000  Level New York Center
Thu 03:54:09 PM 42.1206 -77.0364 253° West 173 199 9,000  Level New York Center

Login

Don't have an account? Register now (free) for customized features, flight alerts, and more!